Sandra Hugh — WDD9019 — position and weather

sailwx.info

Track history (hours):
 
Tides and Currents Weather Stations Pressure Air Temp Water Temp Dewpoint Dewpoint Depression Visibility Wind Speed Wind Dir Waves Ship Positions

Sandra Hugh

Owner: Sortwell Inc., DBA AmNav Maritime Services, Oakland, CA. More information available from US FCC via Universal Licensing System and Coast Guard Vessel Documentation Center.

Last reported at 2017-Mar-24 19:34 UTC. Time now 2017-Mar-24 20:13 UTC.
Position N 37°49' W 122°19'.

Length 24 m; draft 4.9 m.

Type: Tug. MMSI: 367305920.

Date/timePositionNaut miles runAvg speedWind from/ knotsBaromVisibWave heightAir tempDewpointWater temp
2017-Mar-24 19:34N 37°49' W 122°19'0 0.0
2017-Mar-24 18:33N 37°49' W 122°19'0 0.0
2017-Mar-24 17:34N 37°49' W 122°19'0 0.0
2017-Mar-24 16:34N 37°49' W 122°19'2 1.8
2017-Mar-24 15:34N 37°48' W 122°20'2 2.2
2017-Mar-24 14:34N 37°48' W 122°18'2 2.5
2017-Mar-24 13:34N 37°48' W 122°21'2 1.6
2017-Mar-24 12:34N 37°48' W 122°23'3 3.3
2017-Mar-24 11:34N 37°49' W 122°19'0 0.0
2017-Mar-24 10:33N 37°49' W 122°19'0 0.0
2017-Mar-24 09:34N 37°49' W 122°19'0 0.0
2017-Mar-24 08:33N 37°49' W 122°19'0 0.0
2017-Mar-24 07:34N 37°49' W 122°19'0 0.0
2017-Mar-24 06:34N 37°49' W 122°19'0 0.0
2017-Mar-24 05:33N 37°49' W 122°19'0 0.0
2017-Mar-24 04:34N 37°49' W 122°19'0 0.0
2017-Mar-24 03:34N 37°49' W 122°19'0 0.0
2017-Mar-24 02:33N 37°49' W 122°19'0 0.0
2017-Mar-24 01:33N 37°49' W 122°19'0 0.0
2017-Mar-24 00:34N 37°49' W 122°19'0 0.0
2017-Mar-23 23:33N 37°49' W 122°19'0 0.0
2017-Mar-23 22:34N 37°49' W 122°19'0 0.0
2017-Mar-23 21:33N 37°49' W 122°19'0 0.0
2017-Mar-23 20:34N 37°49' W 122°19'0 0.0
2017-Mar-23 19:34N 37°49' W 122°19'0 0.0
2017-Mar-23 18:33N 37°49' W 122°19'0 0.0
2017-Mar-23 17:34N 37°49' W 122°19'0 0.0
2017-Mar-23 16:33N 37°49' W 122°19'0 0.0
2017-Mar-23 15:34N 37°49' W 122°19'0 0.0
2017-Mar-23 14:33N 37°49' W 122°19'2 1.6
2017-Mar-23 13:33N 37°48' W 122°20'0 0.0
2017-Mar-23 12:34N 37°48' W 122°20'1 0.9
2017-Mar-23 11:33N 37°48' W 122°20'2 1.7
2017-Mar-23 10:33N 37°48' W 122°17'2 1.5
2017-Mar-23 09:34N 37°48' W 122°19'1 1.0
2017-Mar-23 08:33N 37°49' W 122°20'0 0.0
2017-Mar-23 07:34N 37°49' W 122°20'0 0.0
2017-Mar-23 06:33N 37°49' W 122°20'0 0.0
2017-Mar-23 05:34N 37°49' W 122°20'0 0.0
2017-Mar-23 04:34N 37°49' W 122°20'0 0.0
2017-Mar-23 03:34N 37°49' W 122°20'0 0.0
2017-Mar-23 02:33N 37°49' W 122°20'1 0.7
2017-Mar-23 01:34N 37°48' W 122°20'1 1.1
2017-Mar-23 00:34N 37°48' W 122°19'2 1.6
2017-Mar-22 23:34N 37°49' W 122°19'0 0.0
2017-Mar-22 22:33N 37°49' W 122°19'0 0.0
2017-Mar-22 21:34N 37°49' W 122°19'0 0.0
2017-Mar-22 20:34N 37°49' W 122°19'0 0.0
2017-Mar-22 19:34N 37°49' W 122°19'0 0.0
2017-Mar-22 18:34N 37°49' W 122°19'0 0.0
2017-Mar-22 17:33N 37°49' W 122°19'0 0.0
2017-Mar-22 16:34N 37°49' W 122°19'0 0.0
2017-Mar-22 15:33N 37°49' W 122°19'0 0.0
2017-Mar-22 14:33N 37°49' W 122°19'0 0.0
2017-Mar-22 13:34N 37°49' W 122°19'2 1.8
2017-Mar-22 12:34N 37°48' W 122°18'1 1.5
2017-Mar-22 11:33N 37°48' W 122°20'1 0.9
2017-Mar-22 10:33N 37°48' W 122°21'2 1.5
2017-Mar-22 09:34N 37°48' W 122°19'0 0.0
2017-Mar-22 08:34N 37°48' W 122°19'0 0.0
2017-Mar-22 07:33N 37°48' W 122°19'0 0.0
2017-Mar-22 06:33N 37°48' W 122°19'0 0.4
2017-Mar-22 05:33N 37°48' W 122°19'1 1.1
2017-Mar-22 04:33N 37°48' W 122°18'1 1.4
2017-Mar-22 03:34N 37°48' W 122°20'0 0.3
2017-Mar-22 02:34N 37°48' W 122°19'0 0.1
2017-Mar-22 01:34N 37°48' W 122°20'1 1.4
2017-Mar-22 00:33N 37°48' W 122°18'1 1.0
2017-Mar-21 23:33N 37°48' W 122°19'2 1.6
2017-Mar-21 22:33N 37°49' W 122°19'0 0.0
2017-Mar-21 21:33N 37°49' W 122°19'0 0.0
2017-Mar-21 20:33N 37°49' W 122°19'0 0.0
2017-Mar-21 19:33N 37°49' W 122°19'0 0.0
2017-Mar-21 18:33N 37°49' W 122°19'0 0.0
2017-Mar-21 17:33N 37°49' W 122°19'0 0.0
2017-Mar-21 16:33N 37°49' W 122°19'0 0.0
2017-Mar-21 15:33N 37°49' W 122°19'0 0.0
2017-Mar-21 14:33N 37°49' W 122°19'1 1.0
2017-Mar-21 13:33N 37°49' W 122°20'3 2.6
2017-Mar-21 12:33N 37°49' W 122°23'7 6.7
2017-Mar-21 11:33N 37°56' W 122°26'1010.3
2017-Mar-21 10:33N 38°03' W 122°17'2 1.8
2017-Mar-21 09:33N 38°03' W 122°15'0 0.0
2017-Mar-21 08:33N 38°03' W 122°15'0 0.0
2017-Mar-21 07:33N 38°03' W 122°15'5 0.4
2017-Mar-20 18:06N 38°02' W 122°08'5 8.6
2017-Mar-20 17:33N 38°04' W 122°14'1 0.6
2017-Mar-20 16:29N 38°04' W 122°15'0 0.1
2017-Mar-20 15:32N 38°03' W 122°15'0 0.0
2017-Mar-20 14:33N 38°03' W 122°15'  
2017-Mar-17 11:11N 38°02' W 122°08'0 0.1
2017-Mar-17 09:16N 38°02' W 122°08'0 0.0
2017-Mar-17 02:29N 38°02' W 122°08'7 7.8
2017-Mar-17 01:33N 38°03' W 122°17'1010.2
2017-Mar-17 00:33N 37°55' W 122°25'3 2.7
2017-Mar-16 23:33N 37°55' W 122°22'1 1.2
2017-Mar-16 22:33N 37°55' W 122°23'0 0.0
2017-Mar-16 21:33N 37°55' W 122°23'1 1.5
2017-Mar-16 20:33N 37°55' W 122°25'4 4.3
2017-Mar-16 19:34N 37°51' W 122°23'4 4.1
2017-Mar-16 18:33N 37°49' W 122°19'0 0.0
2017-Mar-16 17:34N 37°49' W 122°19'0 0.0
2017-Mar-16 16:33N 37°49' W 122°19'0 0.0
2017-Mar-16 15:33N 37°49' W 122°19'0 0.0
2017-Mar-16 14:33N 37°49' W 122°19'0 0.0
2017-Mar-16 13:33N 37°49' W 122°19'0 0.0
2017-Mar-16 12:33N 37°49' W 122°19'0 0.0
2017-Mar-16 11:33N 37°49' W 122°19'0 0.0
2017-Mar-16 10:33N 37°49' W 122°19'0 0.0
2017-Mar-16 09:33N 37°49' W 122°19'0 0.0
2017-Mar-16 08:33N 37°49' W 122°19'0 0.0
2017-Mar-16 07:33N 37°49' W 122°19'0 0.0
2017-Mar-16 06:33N 37°49' W 122°19'0 0.0
2017-Mar-16 05:33N 37°49' W 122°19'0 0.0
2017-Mar-16 04:33N 37°49' W 122°19'0 0.0
2017-Mar-16 03:33N 37°49' W 122°19'0 0.0
2017-Mar-16 02:33N 37°49' W 122°19'2 1.9
2017-Mar-16 01:33N 37°49' W 122°21'6 6.4
2017-Mar-16 00:33N 37°55' W 122°22'1 0.8
2017-Mar-15 23:33N 37°54' W 122°22'2 2.5
2017-Mar-15 22:33N 37°54' W 122°25'1 1.5
2017-Mar-15 21:33N 37°55' W 122°23'1 0.7
2017-Mar-15 20:33N 37°55' W 122°24'1 1.1
2017-Mar-15 19:33N 37°56' W 122°25'7 7.1
2017-Mar-15 18:34N 37°49' W 122°21'2 2.1
2017-Mar-15 17:33N 37°49' W 122°19'0 0.0
2017-Mar-15 16:33N 37°49' W 122°19'0 0.0
2017-Mar-15 15:33N 37°49' W 122°19'0 0.0
2017-Mar-15 14:33N 37°49' W 122°19'4 4.1
2017-Mar-15 13:33N 37°49' W 122°24'4 3.9
2017-Mar-15 12:33N 37°49' W 122°29'9 9.0
2017-Mar-15 11:33N 37°58' W 122°26'1010.0
2017-Mar-15 10:33N 38°04' W 122°16'8 6.9
2017-Mar-15 09:23N 38°03' W 122°06'3 1.3
2017-Mar-15 07:30N 38°02' W 122°09'  
Track history (hours):
 
Tides and Currents Weather Stations Pressure Air Temp Water Temp Dewpoint Dewpoint Depression Visibility Wind Speed Wind Dir Waves Ship Positions

Sandra Hugh

Owner: Sortwell Inc., DBA AmNav Maritime Services, Oakland, CA. More information available from US FCC via Universal Licensing System and Coast Guard Vessel Documentation Center.

Last reported at 2017-Mar-24 19:34 UTC. Time now 2017-Mar-24 20:13 UTC.
Position N 37°49' W 122°19'.

Length 24 m; draft 4.9 m.

Type: Tug. MMSI: 367305920.

Date/timePositionNaut miles runAvg speedWind from/ knotsBaromVisibWave heightAir tempDewpointWater temp
2017-Mar-24 19:34N 37°49' W 122°19'0 0.0
2017-Mar-24 18:33N 37°49' W 122°19'0 0.0
2017-Mar-24 17:34N 37°49' W 122°19'0 0.0
2017-Mar-24 16:34N 37°49' W 122°19'2 1.8
2017-Mar-24 15:34N 37°48' W 122°20'2 2.2
2017-Mar-24 14:34N 37°48' W 122°18'2 2.5
2017-Mar-24 13:34N 37°48' W 122°21'2 1.6
2017-Mar-24 12:34N 37°48' W 122°23'3 3.3
2017-Mar-24 11:34N 37°49' W 122°19'0 0.0
2017-Mar-24 10:33N 37°49' W 122°19'0 0.0
2017-Mar-24 09:34N 37°49' W 122°19'0 0.0
2017-Mar-24 08:33N 37°49' W 122°19'0 0.0
2017-Mar-24 07:34N 37°49' W 122°19'0 0.0
2017-Mar-24 06:34N 37°49' W 122°19'0 0.0
2017-Mar-24 05:33N 37°49' W 122°19'0 0.0
2017-Mar-24 04:34N 37°49' W 122°19'0 0.0
2017-Mar-24 03:34N 37°49' W 122°19'0 0.0
2017-Mar-24 02:33N 37°49' W 122°19'0 0.0
2017-Mar-24 01:33N 37°49' W 122°19'0 0.0
2017-Mar-24 00:34N 37°49' W 122°19'0 0.0
2017-Mar-23 23:33N 37°49' W 122°19'0 0.0
2017-Mar-23 22:34N 37°49' W 122°19'0 0.0
2017-Mar-23 21:33N 37°49' W 122°19'0 0.0
2017-Mar-23 20:34N 37°49' W 122°19'0 0.0
2017-Mar-23 19:34N 37°49' W 122°19'0 0.0
2017-Mar-23 18:33N 37°49' W 122°19'0 0.0
2017-Mar-23 17:34N 37°49' W 122°19'0 0.0
2017-Mar-23 16:33N 37°49' W 122°19'0 0.0
2017-Mar-23 15:34N 37°49' W 122°19'0 0.0
2017-Mar-23 14:33N 37°49' W 122°19'2 1.6
2017-Mar-23 13:33N 37°48' W 122°20'0 0.0
2017-Mar-23 12:34N 37°48' W 122°20'1 0.9
2017-Mar-23 11:33N 37°48' W 122°20'2 1.7
2017-Mar-23 10:33N 37°48' W 122°17'2 1.5
2017-Mar-23 09:34N 37°48' W 122°19'1 1.0
2017-Mar-23 08:33N 37°49' W 122°20'0 0.0
2017-Mar-23 07:34N 37°49' W 122°20'0 0.0
2017-Mar-23 06:33N 37°49' W 122°20'0 0.0
2017-Mar-23 05:34N 37°49' W 122°20'0 0.0
2017-Mar-23 04:34N 37°49' W 122°20'0 0.0
2017-Mar-23 03:34N 37°49' W 122°20'0 0.0
2017-Mar-23 02:33N 37°49' W 122°20'1 0.7
2017-Mar-23 01:34N 37°48' W 122°20'1 1.1
2017-Mar-23 00:34N 37°48' W 122°19'2 1.6
2017-Mar-22 23:34N 37°49' W 122°19'0 0.0
2017-Mar-22 22:33N 37°49' W 122°19'0 0.0
2017-Mar-22 21:34N 37°49' W 122°19'0 0.0
2017-Mar-22 20:34N 37°49' W 122°19'0 0.0
2017-Mar-22 19:34N 37°49' W 122°19'0 0.0
2017-Mar-22 18:34N 37°49' W 122°19'0 0.0
2017-Mar-22 17:33N 37°49' W 122°19'0 0.0
2017-Mar-22 16:34N 37°49' W 122°19'0 0.0
2017-Mar-22 15:33N 37°49' W 122°19'0 0.0
2017-Mar-22 14:33N 37°49' W 122°19'0 0.0
2017-Mar-22 13:34N 37°49' W 122°19'2 1.8
2017-Mar-22 12:34N 37°48' W 122°18'1 1.5
2017-Mar-22 11:33N 37°48' W 122°20'1 0.9
2017-Mar-22 10:33N 37°48' W 122°21'2 1.5
2017-Mar-22 09:34N 37°48' W 122°19'0 0.0
2017-Mar-22 08:34N 37°48' W 122°19'0 0.0
2017-Mar-22 07:33N 37°48' W 122°19'0 0.0
2017-Mar-22 06:33N 37°48' W 122°19'0 0.4
2017-Mar-22 05:33N 37°48' W 122°19'1 1.1
2017-Mar-22 04:33N 37°48' W 122°18'1 1.4
2017-Mar-22 03:34N 37°48' W 122°20'0 0.3
2017-Mar-22 02:34N 37°48' W 122°19'0 0.1
2017-Mar-22 01:34N 37°48' W 122°20'1 1.4
2017-Mar-22 00:33N 37°48' W 122°18'1 1.0
2017-Mar-21 23:33N 37°48' W 122°19'2 1.6
2017-Mar-21 22:33N 37°49' W 122°19'0 0.0
2017-Mar-21 21:33N 37°49' W 122°19'0 0.0
2017-Mar-21 20:33N 37°49' W 122°19'0 0.0
2017-Mar-21 19:33N 37°49' W 122°19'0 0.0
2017-Mar-21 18:33N 37°49' W 122°19'0 0.0
2017-Mar-21 17:33N 37°49' W 122°19'0 0.0
2017-Mar-21 16:33N 37°49' W 122°19'0 0.0
2017-Mar-21 15:33N 37°49' W 122°19'0 0.0
2017-Mar-21 14:33N 37°49' W 122°19'1 1.0
2017-Mar-21 13:33N 37°49' W 122°20'3 2.6
2017-Mar-21 12:33N 37°49' W 122°23'7 6.7
2017-Mar-21 11:33N 37°56' W 122°26'1010.3
2017-Mar-21 10:33N 38°03' W 122°17'2 1.8
2017-Mar-21 09:33N 38°03' W 122°15'0 0.0
2017-Mar-21 08:33N 38°03' W 122°15'0 0.0
2017-Mar-21 07:33N 38°03' W 122°15'5 0.4
2017-Mar-20 18:06N 38°02' W 122°08'5 8.6
2017-Mar-20 17:33N 38°04' W 122°14'1 0.6
2017-Mar-20 16:29N 38°04' W 122°15'0 0.1
2017-Mar-20 15:32N 38°03' W 122°15'0 0.0
2017-Mar-20 14:33N 38°03' W 122°15'  
2017-Mar-17 11:11N 38°02' W 122°08'0 0.1
2017-Mar-17 09:16N 38°02' W 122°08'0 0.0
2017-Mar-17 02:29N 38°02' W 122°08'7 7.8
2017-Mar-17 01:33N 38°03' W 122°17'1010.2
2017-Mar-17 00:33N 37°55' W 122°25'3 2.7
2017-Mar-16 23:33N 37°55' W 122°22'1 1.2
2017-Mar-16 22:33N 37°55' W 122°23'0 0.0
2017-Mar-16 21:33N 37°55' W 122°23'1 1.5
2017-Mar-16 20:33N 37°55' W 122°25'4 4.3
2017-Mar-16 19:34N 37°51' W 122°23'4 4.1
2017-Mar-16 18:33N 37°49' W 122°19'0 0.0
2017-Mar-16 17:34N 37°49' W 122°19'0 0.0
2017-Mar-16 16:33N 37°49' W 122°19'0 0.0
2017-Mar-16 15:33N 37°49' W 122°19'0 0.0
2017-Mar-16 14:33N 37°49' W 122°19'0 0.0
2017-Mar-16 13:33N 37°49' W 122°19'0 0.0
2017-Mar-16 12:33N 37°49' W 122°19'0 0.0
2017-Mar-16 11:33N 37°49' W 122°19'0 0.0
2017-Mar-16 10:33N 37°49' W 122°19'0 0.0
2017-Mar-16 09:33N 37°49' W 122°19'0 0.0
2017-Mar-16 08:33N 37°49' W 122°19'0 0.0
2017-Mar-16 07:33N 37°49' W 122°19'0 0.0
2017-Mar-16 06:33N 37°49' W 122°19'0 0.0
2017-Mar-16 05:33N 37°49' W 122°19'0 0.0
2017-Mar-16 04:33N 37°49' W 122°19'0 0.0
2017-Mar-16 03:33N 37°49' W 122°19'0 0.0
2017-Mar-16 02:33N 37°49' W 122°19'2 1.9
2017-Mar-16 01:33N 37°49' W 122°21'6 6.4
2017-Mar-16 00:33N 37°55' W 122°22'1 0.8
2017-Mar-15 23:33N 37°54' W 122°22'2 2.5
2017-Mar-15 22:33N 37°54' W 122°25'1 1.5
2017-Mar-15 21:33N 37°55' W 122°23'1 0.7
2017-Mar-15 20:33N 37°55' W 122°24'1 1.1
2017-Mar-15 19:33N 37°56' W 122°25'7 7.1
2017-Mar-15 18:34N 37°49' W 122°21'2 2.1
2017-Mar-15 17:33N 37°49' W 122°19'0 0.0
2017-Mar-15 16:33N 37°49' W 122°19'0 0.0
2017-Mar-15 15:33N 37°49' W 122°19'0 0.0
2017-Mar-15 14:33N 37°49' W 122°19'4 4.1
2017-Mar-15 13:33N 37°49' W 122°24'4 3.9
2017-Mar-15 12:33N 37°49' W 122°29'9 9.0
2017-Mar-15 11:33N 37°58' W 122°26'1010.0
2017-Mar-15 10:33N 38°04' W 122°16'8 6.9
2017-Mar-15 09:23N 38°03' W 122°06'3 1.3
2017-Mar-15 07:30N 38°02' W 122°09'  

Dump ship's entire track history